Time;durP1;ratioP1;P1;durP2;ratioP2;P2;SDS_P1;SDS_P2;PMS_P1;PMS_P2;Temp;Humidity;BMP_temperature;BMP_pressure;BME280_temperature;BME280_humidity;BME280_pressure;Samples;Min_cycle;Max_cycle;Signal;HPM_P1;HPM_P2
2023/05/17 00:01:15;;;;;;;;;;;;;;;-147.27;100.00;65176.34;5109817;28;19987;-54
2023/05/17 00:03:40;;;;;;;;;;;;;;;-147.27;100.00;65176.34;5100116;28;20477;-50
2023/05/17 00:06:05;;;;;;;;;;;;;;;-147.27;100.00;65176.34;5104282;28;19927;-54
2023/05/17 00:08:31;;;;;;;;;;;;;;;-147.27;100.00;65176.34;5101544;28;19939;-54
2023/05/17 00:10:56;;;;;;;;;;;;;;;-147.27;100.00;65176.34;5102693;28;19944;-53
2023/05/17 00:13:21;;;;;;;;;;;;;;;-147.27;100.00;65176.34;5104883;28;19923;-53
2023/05/17 00:15:47;;;;;;;;;;;;;;;-147.27;100.00;65176.34;5102984;28;19916;-53
2023/05/17 00:18:13;;;;;;;;;;;;;;;-147.27;100.00;65176.34;5105916;28;19935;-52
2023/05/17 00:20:38;;;;;;;;;;;;;;;-147.27;100.00;65176.34;5107771;28;19916;-55
2023/05/17 00:23:04;;;;;;;;;;;;;;;-147.27;100.00;65176.34;5103924;28;19916;-54
2023/05/17 00:25:29;;;;;;;;;;;;;;;-147.27;100.00;65176.34;5108004;28;19928;-52
2023/05/17 00:27:55;;;;;;;;;;;;;;;-147.27;100.00;65176.34;5101632;28;19959;-56
2023/05/17 00:30:20;;;;;;;;;;;;;;;-147.27;100.00;65176.34;5088716;28;19934;-52
2023/05/17 00:32:47;;;;;;;;;;;;;;;-147.27;100.00;65176.34;5100491;28;19927;-54
2023/05/17 00:35:13;;;;;;;;;;;;;;;-147.27;100.00;65176.34;5119642;28;19920;-51
2023/05/17 00:37:38;;;;;;;;;;;;;;;-147.27;100.00;65176.34;5104715;28;19958;-49
2023/05/17 00:40:04;;;;;;;;;;;;;;;-147.27;100.00;65176.34;5081791;28;19916;-49
2023/05/17 00:42:30;;;;;;;;;;;;;;;-147.27;100.00;65176.34;5085324;28;19920;-52
2023/05/17 00:44:55;;;;;;;;;;;;;;;-147.27;100.00;65176.34;5065913;28;19931;-49
2023/05/17 00:47:20;;;;;;;;;;;;;;;-147.27;100.00;65176.34;5102593;28;19917;-50
2023/05/17 00:49:46;;;;;;;;;;;;;;;-147.27;100.00;65176.34;5102694;28;19922;-49
2023/05/17 00:52:11;;;;;;;;;;;;;;;-147.27;100.00;65176.34;5102510;28;19916;-48
2023/05/17 00:54:38;;;;;;;;;;;;;;;-147.27;100.00;65176.34;5140128;27;19920;-51
2023/05/17 00:57:04;;;;;;;;;;;;;;;-147.27;100.00;65176.34;5122419;28;19920;-52
2023/05/17 00:59:32;;;;;;;;;;;;;;;-147.27;100.00;65176.34;5120883;28;19915;-54
2023/05/17 01:01:58;;;;;;;;;;;;;;;-147.27;100.00;65176.34;5120361;28;19958;-54
2023/05/17 01:04:23;;;;;;;;;;;;;;;-147.27;100.00;65176.34;5118675;28;19920;-52
2023/05/17 01:06:49;;;;;;;;;;;;;;;-147.27;100.00;65176.34;5118654;28;19922;-51
2023/05/17 01:09:15;;;;;;;;;;;;;;;-147.27;100.00;65176.34;5118522;28;19923;-49
2023/05/17 01:11:47;;;;;;;;;;;;;;;-147.27;100.00;65176.34;5116304;28;19955;-53
2023/05/17 01:14:15;;;;;;;;;;;;;;;-147.27;100.00;65176.34;5121287;28;19916;-52
2023/05/17 01:16:45;;;;;;;;;;;;;;;-147.27;100.00;65176.34;5115990;28;19927;-50
2023/05/17 01:19:33;;;;;;;;;;;;;;;-147.27;100.00;65176.34;5114054;28;19916;-53
2023/05/17 01:22:11;;;;;;;;;;;;;;;-147.27;100.00;65176.34;5132648;27;19973;-54
2023/05/17 01:24:37;;;;;;;;;;;;;;;-147.27;100.00;65176.34;5115683;28;19920;-51
2023/05/17 01:27:03;;;;;;;;;;;;;;;-147.27;100.00;65176.34;5117909;28;19930;-51
2023/05/17 01:29:30;;;;;;;;;;;;;;;-147.27;100.00;65176.34;5115769;28;19943;-52
2023/05/17 01:31:58;;;;;;;;;;;;;;;-147.27;100.00;65176.34;5118048;28;19916;-52
2023/05/17 01:34:24;;;;;;;;;;;;;;;-147.27;100.00;65176.34;5115623;28;19921;-52
2023/05/17 01:36:49;;;;;;;;;;;;;;;-147.27;100.00;65176.34;5119008;28;19923;-54
2023/05/17 01:39:15;;;;;;;;;;;;;;;-147.27;100.00;65176.34;5114553;28;19924;-50
2023/05/17 01:41:42;;;;;;;;;;;;;;;-147.27;100.00;65176.34;5114376;28;19944;-52
2023/05/17 01:44:26;;;;;;;;;;;;;;;-147.27;100.00;65176.34;5115273;28;19916;-50
2023/05/17 01:46:56;;;;;;;;;;;;;;;-147.27;100.00;65176.34;5114711;28;19923;-51
2023/05/17 01:49:29;;;;;;;;;;;;;;;-147.27;100.00;65176.34;5114317;28;19916;-49
2023/05/17 01:52:07;;;;;;;;;;;;;;;-147.27;100.00;65176.34;5115204;28;19911;-51
2023/05/17 01:54:56;;;;;;;;;;;;;;;-147.27;100.00;65176.34;5107182;28;19943;-49
2023/05/17 01:57:27;;;;;;;;;;;;;;;-147.27;100.00;65176.34;5070320;28;19916;-52
2023/05/17 01:59:54;;;;;;;;;;;;;;;-147.27;100.00;65176.34;5088786;28;19927;-52
2023/05/17 02:02:21;;;;;;;;;;;;;;;-147.27;100.00;65176.34;5105677;28;20360;-52
2023/05/17 02:04:47;;;;;;;;;;;;;;;-147.27;100.00;65176.34;5106587;28;19943;-50
2023/05/17 02:07:13;;;;;;;;;;;;;;;-147.27;100.00;65176.34;5100110;28;19993;-54
2023/05/17 02:09:38;;;;;;;;;;;;;;;-147.27;100.00;65176.34;5106374;28;19935;-49
2023/05/17 02:12:04;;;;;;;;;;;;;;;-147.27;100.00;65176.34;5088151;28;19924;-49
2023/05/17 02:14:29;;;;;;;;;;;;;;;-147.27;100.00;65176.34;5106077;28;19951;-48
2023/05/17 02:16:55;;;;;;;;;;;;;;;-147.27;100.00;65176.34;5089177;28;19916;-51
2023/05/17 02:19:21;;;;;;;;;;;;;;;-147.27;100.00;65176.34;5105777;28;19927;-52
2023/05/17 02:21:46;;;;;;;;;;;;;;;-147.27;100.00;65176.34;5103370;28;19927;-50
2023/05/17 02:24:11;;;;;;;;;;;;;;;-147.27;100.00;65176.34;5085018;28;19927;-51
2023/05/17 02:26:37;;;;;;;;;;;;;;;-147.27;100.00;65176.34;5104401;28;19975;-50
2023/05/17 02:29:02;;;;;;;;;;;;;;;-147.27;100.00;65176.34;5104518;28;19920;-51
2023/05/17 02:31:29;;;;;;;;;;;;;;;-147.27;100.00;65176.34;5088964;28;19917;-54
2023/05/17 02:33:55;;;;;;;;;;;;;;;-147.27;100.00;65176.34;5106241;28;19932;-49
2023/05/17 02:36:21;;;;;;;;;;;;;;;-147.27;100.00;65176.34;5105750;28;19987;-52
2023/05/17 02:38:47;;;;;;;;;;;;;;;-147.27;100.00;65176.34;5106021;28;19923;-52
2023/05/17 02:41:12;;;;;;;;;;;;;;;-147.27;100.00;65176.34;5087198;28;19948;-52
2023/05/17 02:43:38;;;;;;;;;;;;;;;-147.27;100.00;65176.34;5090024;28;19916;-52
2023/05/17 02:46:03;;;;;;;;;;;;;;;-147.27;100.00;65176.34;5090277;28;19927;-50
2023/05/17 02:48:29;;;;;;;;;;;;;;;-147.27;100.00;65176.34;5105943;28;19916;-54
2023/05/17 02:50:54;;;;;;;;;;;;;;;-147.27;100.00;65176.34;5084010;28;19916;-54
2023/05/17 02:53:19;;;;;;;;;;;;;;;-147.27;100.00;65176.34;5090219;28;19920;-52
2023/05/17 02:55:45;;;;;;;;;;;;;;;-147.27;100.00;65176.34;5121378;28;19971;-51
2023/05/17 02:58:11;;;;;;;;;;;;;;;-147.27;100.00;65176.34;5115615;28;19946;-50
2023/05/17 03:00:37;;;;;;;;;;;;;;;-147.27;100.00;65176.34;5122831;28;19975;-55
2023/05/17 03:03:03;;;;;;;;;;;;;;;-147.27;100.00;65176.34;5114666;28;19934;-52
2023/05/17 03:05:28;;;;;;;;;;;;;;;-147.27;100.00;65176.34;5121841;28;19943;-51
2023/05/17 03:07:55;;;;;;;;;;;;;;;-147.27;100.00;65176.34;5113720;28;19975;-51
2023/05/17 03:10:20;;;;;;;;;;;;;;;-147.27;100.00;65176.34;5115080;28;19920;-53
2023/05/17 03:12:46;;;;;;;;;;;;;;;-147.27;100.00;65176.34;5122932;28;19916;-51
2023/05/17 03:15:14;;;;;;;;;;;;;;;-147.27;100.00;65176.34;5121648;28;19916;-53
2023/05/17 03:17:40;;;;;;;;;;;;;;;-147.27;100.00;65176.34;5117254;28;19939;-53
2023/05/17 03:20:07;;;;;;;;;;;;;;;-147.27;100.00;65176.34;5117616;28;19916;-52
2023/05/17 03:22:33;;;;;;;;;;;;;;;-147.27;100.00;65176.34;5115442;28;19923;-54
2023/05/17 03:24:59;;;;;;;;;;;;;;;-147.27;100.00;65176.34;5117654;28;19924;-53
2023/05/17 03:27:25;;;;;;;;;;;;;;;-147.27;100.00;65176.34;5119943;28;19915;-51
2023/05/17 03:29:51;;;;;;;;;;;;;;;-147.27;100.00;65176.34;5115022;28;19916;-53
2023/05/17 03:32:17;;;;;;;;;;;;;;;-147.27;100.00;65176.34;5113389;28;19923;-52
2023/05/17 03:34:43;;;;;;;;;;;;;;;-147.27;100.00;65176.34;5113218;28;20458;-54
2023/05/17 03:37:08;;;;;;;;;;;;;;;-147.27;100.00;65176.34;5114226;28;19958;-55
2023/05/17 03:39:34;;;;;;;;;;;;;;;-147.27;100.00;65176.34;5117485;28;19963;-53
2023/05/17 03:42:01;;;;;;;;;;;;;;;-147.27;100.00;65176.34;5115978;28;19920;-56
2023/05/17 03:44:27;;;;;;;;;;;;;;;-147.27;100.00;65176.34;5113167;28;19920;-55
2023/05/17 03:46:53;;;;;;;;;;;;;;;-147.27;100.00;65176.34;5118648;28;19996;-50
2023/05/17 03:49:20;;;;;;;;;;;;;;;-147.27;100.00;65176.34;5117908;28;19922;-52
2023/05/17 03:51:47;;;;;;;;;;;;;;;-147.27;100.00;65176.34;5116550;28;19916;-51
2023/05/17 03:54:15;;;;;;;;;;;;;;;-147.27;100.00;65176.34;5116520;28;19916;-53
2023/05/17 03:56:45;;;;;;;;;;;;;;;-147.27;100.00;65176.34;5117342;28;19922;-51
2023/05/17 03:59:12;;;;;;;;;;;;;;;-147.27;100.00;65176.34;5113629;28;19990;-55
2023/05/17 04:01:39;;;;;;;;;;;;;;;-147.27;100.00;65176.34;5113215;28;19923;-48
2023/05/17 04:04:04;;;;;;;;;;;;;;;-147.27;100.00;65176.34;5112849;28;19916;-50
2023/05/17 04:06:31;;;;;;;;;;;;;;;-147.27;100.00;65176.34;5115091;28;19938;-55
2023/05/17 04:08:58;;;;;;;;;;;;;;;-147.27;100.00;65176.34;5118382;28;19923;-51
2023/05/17 04:11:26;;;;;;;;;;;;;;;-147.27;100.00;65176.34;5120653;28;19916;-55
2023/05/17 04:13:52;;;;;;;;;;;;;;;-147.27;100.00;65176.34;5120563;28;19942;-49
2023/05/17 04:16:17;;;;;;;;;;;;;;;-147.27;100.00;65176.34;5120668;28;19916;-50
2023/05/17 04:18:44;;;;;;;;;;;;;;;-147.27;100.00;65176.34;5118322;28;20006;-50
2023/05/17 04:21:10;;;;;;;;;;;;;;;-147.27;100.00;65176.34;5116680;28;19916;-51
2023/05/17 04:23:38;;;;;;;;;;;;;;;-147.27;100.00;65176.34;5120008;28;19916;-52
2023/05/17 04:26:04;;;;;;;;;;;;;;;-147.27;100.00;65176.34;5119518;28;19926;-50
2023/05/17 04:28:33;;;;;;;;;;;;;;;-147.27;100.00;65176.34;5118280;28;19938;-50
2023/05/17 04:31:00;;;;;;;;;;;;;;;-147.27;100.00;65176.34;5118348;28;19922;-51
2023/05/17 04:33:26;;;;;;;;;;;;;;;-147.27;100.00;65176.34;5116083;28;20019;-53
2023/05/17 04:35:55;;;;;;;;;;;;;;;-147.27;100.00;65176.34;5119320;28;19999;-52
2023/05/17 04:38:22;;;;;;;;;;;;;;;-147.27;100.00;65176.34;5115463;28;19934;-51
2023/05/17 04:40:49;;;;;;;;;;;;;;;-147.27;100.00;65176.34;5123387;28;19916;-52
2023/05/17 04:43:15;;;;;;;;;;;;;;;-147.27;100.00;65176.34;5118247;28;20033;-51
2023/05/17 04:45:42;;;;;;;;;;;;;;;-147.27;100.00;65176.34;5123224;28;19924;-52
2023/05/17 04:48:08;;;;;;;;;;;;;;;-147.27;100.00;65176.34;5122542;28;19979;-49
2023/05/17 04:50:34;;;;;;;;;;;;;;;-147.27;100.00;65176.34;5117761;28;19927;-52
2023/05/17 04:53:00;;;;;;;;;;;;;;;-147.27;100.00;65176.34;5121712;28;19947;-52
2023/05/17 04:55:27;;;;;;;;;;;;;;;-147.27;100.00;65176.34;5086120;28;19916;-51
2023/05/17 04:57:53;;;;;;;;;;;;;;;-147.27;100.00;65176.34;5088931;28;19955;-50
2023/05/17 05:00:21;;;;;;;;;;;;;;;-147.27;100.00;65176.34;5102553;28;19915;-53
2023/05/17 05:02:55;;;;;;;;;;;;;;;-147.27;100.00;65176.34;5088427;28;20003;-54
2023/05/17 05:05:21;;;;;;;;;;;;;;;-147.27;100.00;65176.34;5088063;28;19969;-55
2023/05/17 05:07:47;;;;;;;;;;;;;;;-147.27;100.00;65176.34;5089771;28;19979;-53
2023/05/17 05:10:12;;;;;;;;;;;;;;;-147.27;100.00;65176.34;5124975;28;19919;-49
2023/05/17 05:12:38;;;;;;;;;;;;;;;-147.27;100.00;65176.34;5122957;28;19920;-48
2023/05/17 05:15:04;;;;;;;;;;;;;;;-147.27;100.00;65176.34;5088131;28;19924;-51
2023/05/17 05:17:30;;;;;;;;;;;;;;;-147.27;100.00;65176.34;5086065;28;19919;-53
2023/05/17 05:19:56;;;;;;;;;;;;;;;-147.27;100.00;65176.34;5084143;28;19988;-49
2023/05/17 05:22:21;;;;;;;;;;;;;;;-147.27;100.00;65176.34;5084042;28;20014;-52
2023/05/17 05:24:47;;;;;;;;;;;;;;;-147.27;100.00;65176.34;5101542;28;19938;-50
2023/05/17 05:27:13;;;;;;;;;;;;;;;-147.27;100.00;65176.34;5085151;28;19917;-51
2023/05/17 05:29:41;;;;;;;;;;;;;;;-147.27;100.00;65176.34;5120006;28;19924;-53
2023/05/17 05:32:07;;;;;;;;;;;;;;;-147.27;100.00;65176.34;5085337;28;19916;-50
2023/05/17 05:34:38;;;;;;;;;;;;;;;-147.27;100.00;65176.34;5084369;28;19938;-51
2023/05/17 05:37:04;;;;;;;;;;;;;;;-147.27;100.00;65176.34;5087119;28;19956;-47
2023/05/17 05:39:30;;;;;;;;;;;;;;;-147.27;100.00;65176.34;5085964;28;19916;-51
2023/05/17 05:41:56;;;;;;;;;;;;;;;-147.27;100.00;65176.34;5087124;28;19959;-51
2023/05/17 05:44:22;;;;;;;;;;;;;;;-147.27;100.00;65176.34;5121463;28;19920;-51
2023/05/17 05:46:48;;;;;;;;;;;;;;;-147.27;100.00;65176.34;5086794;28;19923;-56
2023/05/17 05:49:13;;;;;;;;;;;;;;;-147.27;100.00;65176.34;5086921;28;19972;-53
2023/05/17 05:51:39;;;;;;;;;;;;;;;-147.27;100.00;65176.34;5084813;28;19920;-57
2023/05/17 05:54:05;;;;;;;;;;;;;;;-147.27;100.00;65176.34;5100789;28;19935;-53
2023/05/17 05:56:30;;;;;;;;;;;;;;;-147.27;100.00;65176.34;5120321;28;19924;-51
2023/05/17 05:58:56;;;;;;;;;;;;;;;-147.27;100.00;65176.34;5117154;28;19916;-48
2023/05/17 06:01:24;;;;;;;;;;;;;;;-147.27;100.00;65176.34;5121405;28;19926;-51
2023/05/17 06:03:49;;;;;;;;;;;;;;;-147.27;100.00;65176.34;5120575;28;19924;-51
2023/05/17 06:06:17;;;;;;;;;;;;;;;-147.27;100.00;65176.34;5125778;28;19920;-54
2023/05/17 06:08:44;;;;;;;;;;;;;;;-147.27;100.00;65176.34;5123336;28;19916;-53
2023/05/17 06:11:10;;;;;;;;;;;;;;;-147.27;100.00;65176.34;5124754;28;19916;-54
2023/05/17 06:13:35;;;;;;;;;;;;;;;-147.27;100.00;65176.34;5124174;28;19916;-50
2023/05/17 06:16:01;;;;;;;;;;;;;;;-147.27;100.00;65176.34;5125894;28;19916;-54
2023/05/17 06:18:26;;;;;;;;;;;;;;;-147.27;100.00;65176.34;5123536;28;19955;-53
2023/05/17 06:20:51;;;;;;;;;;;;;;;-147.27;100.00;65176.34;5125589;28;19976;-52
2023/05/17 06:23:17;;;;;;;;;;;;;;;-147.27;100.00;65176.34;5121144;28;19924;-53
2023/05/17 06:25:42;;;;;;;;;;;;;;;-147.27;100.00;65176.34;5119732;28;19920;-50
2023/05/17 06:28:08;;;;;;;;;;;;;;;-147.27;100.00;65176.34;5120810;28;20282;-50
2023/05/17 06:30:34;;;;;;;;;;;;;;;-147.27;100.00;65176.34;5123129;28;19916;-48
2023/05/17 06:32:59;;;;;;;;;;;;;;;-147.27;100.00;65176.34;5121317;28;19980;-49
2023/05/17 06:35:24;;;;;;;;;;;;;;;-147.27;100.00;65176.34;5120290;28;19949;-49
2023/05/17 06:37:50;;;;;;;;;;;;;;;-147.27;100.00;65176.34;5114396;28;19945;-49
2023/05/17 06:40:15;;;;;;;;;;;;;;;-147.27;100.00;65176.34;5115243;28;19919;-50
2023/05/17 06:42:40;;;;;;;;;;;;;;;-147.27;100.00;65176.34;5118953;28;19940;-51
2023/05/17 06:45:06;;;;;;;;;;;;;;;-147.27;100.00;65176.34;5110751;28;19920;-49
2023/05/17 06:47:31;;;;;;;;;;;;;;;-147.27;100.00;65176.34;5113729;28;19916;-49
2023/05/17 06:49:57;;;;;;;;;;;;;;;-147.27;100.00;65176.34;5120995;28;19927;-49
2023/05/17 06:52:22;;;;;;;;;;;;;;;-147.27;100.00;65176.34;5112818;28;19943;-50
2023/05/17 06:54:48;;;;;;;;;;;;;;;-147.27;100.00;65176.34;5106505;28;19920;-50
2023/05/17 06:57:13;;;;;;;;;;;;;;;-147.27;100.00;65176.34;5102165;28;19924;-48
2023/05/17 06:59:39;;;;;;;;;;;;;;;-147.27;100.00;65176.34;5105603;28;19920;-53
2023/05/17 07:02:04;;;;;;;;;;;;;;;-147.27;100.00;65176.34;5108078;28;19931;-53
2023/05/17 07:04:30;;;;;;;;;;;;;;;-147.27;100.00;65176.34;5103759;28;19928;-50
2023/05/17 07:06:55;;;;;;;;;;;;;;;-147.27;100.00;65176.34;5101361;28;19916;-50
2023/05/17 07:09:21;;;;;;;;;;;;;;;-147.27;100.00;65176.34;5101584;28;19916;-48
2023/05/17 07:11:47;;;;;;;;;;;;;;;-147.27;100.00;65176.34;5098772;28;19916;-56
2023/05/17 07:14:12;;;;;;;;;;;;;;;-147.27;100.00;65176.34;5099232;28;19908;-48
2023/05/17 07:16:37;;;;;;;;;;;;;;;-147.27;100.00;65176.34;5109791;28;19926;-48
2023/05/17 07:19:03;;;;;;;;;;;;;;;-147.27;100.00;65176.34;5107055;28;19919;-49
2023/05/17 07:21:28;;;;;;;;;;;;;;;-147.27;100.00;65176.34;5101523;28;19992;-49
2023/05/17 07:23:54;;;;;;;;;;;;;;;-147.27;100.00;65176.34;5104706;28;19948;-50
2023/05/17 07:26:20;;;;;;;;;;;;;;;-147.27;100.00;65176.34;5106049;28;19920;-49
2023/05/17 07:28:45;;;;;;;;;;;;;;;-147.27;100.00;65176.34;5101841;28;19934;-50
2023/05/17 07:31:10;;;;;;;;;;;;;;;-147.27;100.00;65176.34;5104947;28;19930;-50
2023/05/17 07:33:36;;;;;;;;;;;;;;;-147.27;100.00;65176.34;5107958;28;19916;-56
2023/05/17 07:36:01;;;;;;;;;;;;;;;-147.27;100.00;65176.34;5103137;28;19916;-54
2023/05/17 07:38:26;;;;;;;;;;;;;;;-147.27;100.00;65176.34;5105510;28;19938;-51
2023/05/17 07:40:52;;;;;;;;;;;;;;;-147.27;100.00;65176.34;5084839;28;19916;-49
2023/05/17 07:43:17;;;;;;;;;;;;;;;-147.27;100.00;65176.34;5089267;28;19920;-50
2023/05/17 07:45:43;;;;;;;;;;;;;;;-147.27;100.00;65176.34;5109373;28;19942;-47
2023/05/17 07:48:08;;;;;;;;;;;;;;;-147.27;100.00;65176.34;5107566;28;19976;-50
2023/05/17 07:50:34;;;;;;;;;;;;;;;-147.27;100.00;65176.34;5104847;28;19936;-49
2023/05/17 07:53:00;;;;;;;;;;;;;;;-147.27;100.00;65176.34;5108394;28;19979;-48
2023/05/17 07:55:25;;;;;;;;;;;;;;;-147.27;100.00;65176.34;5118615;28;19931;-50
2023/05/17 07:57:51;;;;;;;;;;;;;;;-147.27;100.00;65176.34;5125744;28;19916;-53
2023/05/17 08:00:18;;;;;;;;;;;;;;;-147.27;100.00;65176.34;5121480;28;19926;-50
2023/05/17 08:02:44;;;;;;;;;;;;;;;-147.27;100.00;65176.34;5119158;28;19999;-50
2023/05/17 08:05:09;;;;;;;;;;;;;;;-147.27;100.00;65176.34;5118990;28;19920;-48
2023/05/17 08:07:35;;;;;;;;;;;;;;;-147.27;100.00;65176.34;5121327;28;19916;-53
2023/05/17 08:10:01;;;;;;;;;;;;;;;-147.27;100.00;65176.34;5116641;28;19916;-53
2023/05/17 08:12:26;;;;;;;;;;;;;;;-147.27;100.00;65176.34;5125370;28;20298;-49
2023/05/17 08:14:51;;;;;;;;;;;;;;;-147.27;100.00;65176.34;5121931;28;19923;-50
2023/05/17 08:17:17;;;;;;;;;;;;;;;-147.27;100.00;65176.34;5122346;28;19951;-51
2023/05/17 08:19:43;;;;;;;;;;;;;;;-147.27;100.00;65176.34;5122559;28;19920;-51
2023/05/17 08:22:09;;;;;;;;;;;;;;;-147.27;100.00;65176.34;5122875;28;19915;-54
2023/05/17 08:24:35;;;;;;;;;;;;;;;-147.27;100.00;65176.34;5116864;28;19920;-52
2023/05/17 08:27:01;;;;;;;;;;;;;;;-147.27;100.00;65176.34;5114785;28;19926;-53
2023/05/17 08:29:26;;;;;;;;;;;;;;;-147.27;100.00;65176.34;5113500;28;19916;-51
2023/05/17 08:31:55;;;;;;;;;;;;;;;-147.27;100.00;65176.34;5118765;28;19965;-55
2023/05/17 08:34:21;;;;;;;;;;;;;;;-147.27;100.00;65176.34;5117219;28;20007;-52
2023/05/17 08:36:46;;;;;;;;;;;;;;;-147.27;100.00;65176.34;5118045;28;19941;-52
2023/05/17 08:39:12;;;;;;;;;;;;;;;-147.27;100.00;65176.34;5116233;27;19916;-53
2023/05/17 08:41:38;;;;;;;;;;;;;;;-147.27;100.00;65176.34;5120216;28;19923;-53
2023/05/17 08:44:05;;;;;;;;;;;;;;;-147.27;100.00;65176.34;5120251;27;20002;-53
2023/05/17 08:46:31;;;;;;;;;;;;;;;-147.27;100.00;65176.34;5120664;28;19967;-54
2023/05/17 08:48:58;;;;;;;;;;;;;;;-147.27;100.00;65176.34;5119402;28;19923;-47
2023/05/17 08:51:25;;;;;;;;;;;;;;;-147.27;100.00;65176.34;5117904;28;20014;-51
2023/05/17 08:53:50;;;;;;;;;;;;;;;-147.27;100.00;65176.34;5112061;28;20377;-50
2023/05/17 08:56:17;;;;;;;;;;;;;;;-147.27;100.00;65176.34;5103375;28;19924;-48
2023/05/17 08:58:43;;;;;;;;;;;;;;;-147.27;100.00;65176.34;5103932;28;19991;-52
2023/05/17 09:01:09;;;;;;;;;;;;;;;-147.27;100.00;65176.34;5102466;28;20579;-49
2023/05/17 09:03:34;;;;;;;;;;;;;;;-147.27;100.00;65176.34;5097970;28;19942;-49
2023/05/17 09:06:00;;;;;;;;;;;;;;;-147.27;100.00;65176.34;5108011;28;19921;-50
2023/05/17 09:08:26;;;;;;;;;;;;;;;-147.27;100.00;65176.34;5100216;28;19924;-51
2023/05/17 09:10:53;;;;;;;;;;;;;;;-147.27;100.00;65176.34;5102004;28;19943;-53
2023/05/17 09:13:18;;;;;;;;;;;;;;;-147.27;100.00;65176.34;5098198;28;19986;-51
2023/05/17 09:15:46;;;;;;;;;;;;;;;-147.27;100.00;65176.34;5097156;28;19998;-52
2023/05/17 09:18:11;;;;;;;;;;;;;;;-147.27;100.00;65176.34;5101377;28;19916;-52
2023/05/17 09:20:38;;;;;;;;;;;;;;;-147.27;100.00;65176.34;5104891;28;19917;-52
2023/05/17 09:23:04;;;;;;;;;;;;;;;-147.27;100.00;65176.34;5100789;28;19960;-49
2023/05/17 09:25:30;;;;;;;;;;;;;;;-147.27;100.00;65176.34;5102874;28;19920;-49
2023/05/17 09:27:59;;;;;;;;;;;;;;;-147.27;100.00;65176.34;5097790;28;19926;-54
2023/05/17 09:30:28;;;;;;;;;;;;;;;-147.27;100.00;65176.34;5101336;28;19920;-55
2023/05/17 09:32:54;;;;;;;;;;;;;;;-147.27;100.00;65176.34;5100851;28;19920;-51
2023/05/17 09:35:27;;;;;;;;;;;;;;;-147.27;100.00;65176.34;5103279;28;19917;-50
2023/05/17 09:37:54;;;;;;;;;;;;;;;-147.27;100.00;65176.34;5105812;28;19916;-49
2023/05/17 09:40:24;;;;;;;;;;;;;;;-147.27;100.00;65176.34;5103535;28;20009;-52
2023/05/17 09:42:50;;;;;;;;;;;;;;;-147.27;100.00;65176.34;5102793;28;19916;-49
2023/05/17 09:45:20;;;;;;;;;;;;;;;-147.27;100.00;65176.34;5103945;28;19927;-51
2023/05/17 09:47:46;;;;;;;;;;;;;;;-147.27;100.00;65176.34;5101928;28;19924;-51
2023/05/17 09:50:16;;;;;;;;;;;;;;;-147.27;100.00;65176.34;5105315;28;19938;-47
2023/05/17 09:52:42;;;;;;;;;;;;;;;-147.27;100.00;65176.34;5100293;28;19920;-54
2023/05/17 09:55:08;;;;;;;;;;;;;;;-147.27;100.00;65176.34;5116963;28;19928;-51
2023/05/17 09:57:37;;;;;;;;;;;;;;;-147.27;100.00;65176.34;5119886;28;20012;-51
2023/05/17 10:00:10;;;;;;;;;;;;;;;-147.27;100.00;65176.34;5119086;28;19916;-49
2023/05/17 10:02:39;;;;;;;;;;;;;;;-147.27;100.00;65176.34;5119265;28;19916;-53
2023/05/17 10:05:09;;;;;;;;;;;;;;;-147.27;100.00;65176.34;5120601;28;19983;-55
2023/05/17 10:07:35;;;;;;;;;;;;;;;-147.27;100.00;65176.34;5118416;28;19966;-51
2023/05/17 10:10:01;;;;;;;;;;;;;;;-147.27;100.00;65176.34;5120551;28;19941;-50
2023/05/17 10:12:30;;;;;;;;;;;;;;;-147.27;100.00;65176.34;5122487;28;19920;-49
2023/05/17 10:14:58;;;;;;;;;;;;;;;-147.27;100.00;65176.34;5124083;28;19927;-53
2023/05/17 10:17:25;;;;;;;;;;;;;;;-147.27;100.00;65176.34;5121616;28;19931;-52
2023/05/17 10:19:51;;;;;;;;;;;;;;;-147.27;100.00;65176.34;5120400;28;19958;-53
2023/05/17 10:22:16;;;;;;;;;;;;;;;-147.27;100.00;65176.34;5122247;28;19916;-52
2023/05/17 10:24:42;;;;;;;;;;;;;;;-147.27;100.00;65176.34;5120210;28;19935;-52
2023/05/17 10:27:08;;;;;;;;;;;;;;;-147.27;100.00;65176.34;5120842;28;19959;-53
2023/05/17 10:29:35;;;;;;;;;;;;;;;-147.27;100.00;65176.34;5119877;28;19916;-49
2023/05/17 10:32:02;;;;;;;;;;;;;;;-147.27;100.00;65176.34;5123338;28;20673;-53
2023/05/17 10:34:28;;;;;;;;;;;;;;;-147.27;100.00;65176.34;5118397;28;19912;-54
2023/05/17 10:36:54;;;;;;;;;;;;;;;-147.27;100.00;65176.34;5116829;28;19979;-52
2023/05/17 10:39:20;;;;;;;;;;;;;;;-147.27;100.00;65176.34;5112431;28;19923;-50
2023/05/17 10:41:49;;;;;;;;;;;;;;;-147.27;100.00;65176.34;5117768;28;19915;-54
2023/05/17 10:44:16;;;;;;;;;;;;;;;-147.27;100.00;65176.34;5148072;27;19976;-51
2023/05/17 10:47:00;;;;;;;;;;;;;;;-147.27;100.00;65176.34;5118061;28;19993;-56
2023/05/17 10:49:29;;;;;;;;;;;;;;;-147.27;100.00;65176.34;5117485;28;19916;-51
2023/05/17 10:52:10;;;;;;;;;;;;;;;-147.27;100.00;65176.34;5120395;28;19936;-52
2023/05/17 10:54:35;;;;;;;;;;;;;;;-147.27;100.00;65176.34;5119375;28;19927;-48
2023/05/17 10:57:03;;;;;;;;;;;;;;;-147.27;100.00;65176.34;5120236;28;19987;-51
2023/05/17 10:59:30;;;;;;;;;;;;;;;-147.27;100.00;65176.34;5116906;28;19916;-51
2023/05/17 11:02:04;;;;;;;;;;;;;;;-147.27;100.00;65176.34;5116796;28;19991;-53
2023/05/17 11:04:32;;;;;;;;;;;;;;;-147.27;100.00;65176.34;5118362;28;19919;-49
2023/05/17 11:09:17;;;;;;;4.22;1.58;;;;;;;36.24;23.47;102681.84;5056321;28;20386;-47
2023/05/17 11:12:05;;;;;;;6.00;2.00;;;;;;;36.82;25.81;102695.53;5049652;28;20041;-50
2023/05/17 11:14:43;;;;;;;5.18;1.38;;;;;;;36.69;24.18;102689.84;5050812;28;23519;-52
2023/05/17 11:17:20;;;;;;;4.05;1.38;;;;;;;37.44;23.51;102682.94;5052420;28;20037;-48
2023/05/17 11:19:59;;;;;;;5.82;1.95;;;;;;;37.79;21.51;102681.13;5052497;28;20116;-50
2023/05/17 11:22:26;;;;;;;4.78;1.30;;;;;;;37.74;20.27;102690.50;5048632;28;20033;-52
2023/05/17 11:24:55;;;;;;;3.28;1.30;;;;;;;37.50;24.41;102677.22;5054484;28;20056;-51
2023/05/17 11:27:26;;;;;;;8.73;2.00;;;;;;;38.15;21.05;102683.31;5049017;28;20034;-52
2023/05/17 11:29:59;;;;;;;3.60;1.13;;;;;;;37.85;23.43;102688.13;5050838;28;20049;-55
2023/05/17 11:32:27;;;;;;;6.63;1.65;;;;;;;38.08;20.35;102687.81;5051359;28;20033;-54
2023/05/17 11:34:53;;;;;;;6.32;1.55;;;;;;;37.15;22.25;102686.59;5051636;28;20033;-53
2023/05/17 11:37:29;;;;;;;5.55;1.15;;;;;;;37.54;22.18;102690.16;5051968;28;20044;-52
2023/05/17 11:40:06;;;;;;;8.15;1.52;;;;;;;37.95;20.35;102689.69;5053723;28;20044;-55
2023/05/17 11:42:33;;;;;;;7.15;1.60;;;;;;;39.06;18.92;102691.25;5053769;28;20118;-53
2023/05/17 11:45:02;;;;;;;4.80;1.38;;;;;;;39.19;20.25;102697.66;5049628;28;20036;-54
2023/05/17 11:47:28;;;;;;;5.20;1.38;;;;;;;39.05;22.90;102695.22;5049747;28;20061;-55
2023/05/17 11:49:55;;;;;;;10.98;1.70;;;;;;;38.29;19.61;102698.94;5053571;28;20041;-53
2023/05/17 11:52:21;;;;;;;4.82;1.40;;;;;;;39.41;18.31;102697.22;5053378;28;20033;-51
2023/05/17 11:54:47;;;;;;;5.57;1.38;;;;;;;38.87;22.63;102690.63;5049614;28;20101;-55
2023/05/17 11:57:15;;;;;;;5.53;1.52;;;;;;;39.27;19.34;102686.34;5051675;28;20055;-49
2023/05/17 11:59:44;;;;;;;6.40;1.50;;;;;;;40.33;19.89;102695.91;5050801;28;20033;-53
2023/05/17 12:02:24;;;;;;;5.05;1.63;;;;;;;39.65;20.63;102689.13;5050750;28;20064;-56
2023/05/17 12:04:50;;;;;;;8.65;1.60;;;;;;;40.88;19.38;102697.38;5056132;28;20033;-49
2023/05/17 12:07:16;;;;;;;10.38;1.98;;;;;;;40.90;18.11;102695.00;5053697;28;20045;-52
2023/05/17 12:09:44;;;;;;;6.90;1.40;;;;;;;40.63;18.97;102689.94;5072451;28;20040;-52
2023/05/17 12:12:09;;;;;;;4.28;1.25;;;;;;;40.41;19.52;102685.72;5074622;28;20093;-55
2023/05/17 12:14:36;;;;;;;6.97;2.05;;;;;;;40.31;17.90;102692.66;5075002;28;20025;-53